sensor_id;sensor_type;location;lat;lon;timestamp;pressure;altitude;pressure_sealevel;temperature;humidity
6869;BME280;3473;42.604;23.496;2022-09-11T00:01:43;21499.53;;;-140.19;75.08
6869;BME280;3473;42.604;23.496;2022-09-11T00:03:35;21629.66;;;-140.19;75.19
6869;BME280;3473;42.604;23.496;2022-09-11T00:05:27;21579.16;;;-140.19;74.89
6869;BME280;3473;42.604;23.496;2022-09-11T00:07:22;21544.19;;;-140.19;74.83
6869;BME280;3473;42.604;23.496;2022-09-11T00:09:16;21509.25;;;-140.19;74.87
6869;BME280;3473;42.604;23.496;2022-09-11T00:11:10;21658.78;;;-140.19;74.89
6869;BME280;3473;42.604;23.496;2022-09-11T00:13:02;21555.84;;;-140.19;75.00
6869;BME280;3473;42.604;23.496;2022-09-11T00:14:55;21598.56;;;-140.19;74.92
6869;BME280;3473;42.604;23.496;2022-09-11T00:16:47;21561.69;;;-140.19;75.11
6869;BME280;3473;42.604;23.496;2022-09-11T00:18:39;21497.59;;;-140.19;75.32
6869;BME280;3473;42.604;23.496;2022-09-11T00:20:31;21540.31;;;-140.19;75.14
6869;BME280;3473;42.604;23.496;2022-09-11T00:22:24;21392.72;;;-140.19;75.52
6869;BME280;3473;42.604;23.496;2022-09-11T00:24:18;21410.22;;;-140.19;75.26
6869;BME280;3473;42.604;23.496;2022-09-11T00:26:10;21447.09;;;-140.19;75.09
6869;BME280;3473;42.604;23.496;2022-09-11T00:28:02;21561.69;;;-140.19;75.32
6869;BME280;3473;42.604;23.496;2022-09-11T00:29:54;21685.97;;;-140.19;75.50
6869;BME280;3473;42.604;23.496;2022-09-11T00:31:46;21375.25;;;-140.19;75.54
6869;BME280;3473;42.604;23.496;2022-09-11T00:33:39;21526.72;;;-140.19;75.82
6869;BME280;3473;42.604;23.496;2022-09-11T00:35:31;21701.50;;;-140.19;75.87
6869;BME280;3473;42.604;23.496;2022-09-11T00:37:24;21561.69;;;-140.19;76.27
6869;BME280;3473;42.604;23.496;2022-09-11T00:39:16;21530.59;;;-140.19;76.60
6869;BME280;3473;42.604;23.496;2022-09-11T00:41:13;21421.88;;;-140.19;76.63
6869;BME280;3473;42.604;23.496;2022-09-11T00:43:08;21419.91;;;-140.19;76.38
6869;BME280;3473;42.604;23.496;2022-09-11T00:45:04;21427.69;;;-140.19;76.48
6869;BME280;3473;42.604;23.496;2022-09-11T00:46:59;21400.50;;;-140.19;76.36
6869;BME280;3473;42.604;23.496;2022-09-11T00:48:52;21423.81;;;-140.19;76.38
6869;BME280;3473;42.604;23.496;2022-09-11T00:50:47;21474.28;;;-140.19;76.50
6869;BME280;3473;42.604;23.496;2022-09-11T00:52:48;21357.78;;;-140.19;76.71
6869;BME280;3473;42.604;23.496;2022-09-11T00:54:44;21517.00;;;-140.19;76.85
6869;BME280;3473;42.604;23.496;2022-09-11T00:56:40;21509.25;;;-140.19;77.03
6869;BME280;3473;42.604;23.496;2022-09-11T00:58:36;21571.38;;;-140.19;77.16
6869;BME280;3473;42.604;23.496;2022-09-11T01:00:28;21478.19;;;-140.19;77.35
6869;BME280;3473;42.604;23.496;2022-09-11T01:02:22;21511.19;;;-140.19;77.52
6869;BME280;3473;42.604;23.496;2022-09-11T01:04:16;21608.28;;;-140.19;77.82
6869;BME280;3473;42.604;23.496;2022-09-11T01:06:08;21654.88;;;-140.19;77.86
6869;BME280;3473;42.604;23.496;2022-09-11T01:08:03;21598.56;;;-140.19;78.27
6869;BME280;3473;42.604;23.496;2022-09-11T01:09:56;21530.59;;;-140.19;78.41
6869;BME280;3473;42.604;23.496;2022-09-11T01:11:54;21584.97;;;-140.19;78.58
6869;BME280;3473;42.604;23.496;2022-09-11T01:13:54;21689.84;;;-140.19;78.49
6869;BME280;3473;42.604;23.496;2022-09-11T01:15:54;21542.25;;;-140.19;78.60
6869;BME280;3473;42.604;23.496;2022-09-11T01:17:57;21573.31;;;-140.19;78.95
6869;BME280;3473;42.604;23.496;2022-09-11T01:20:12;21685.97;;;-140.19;79.05
6869;BME280;3473;42.604;23.496;2022-09-11T01:22:24;21771.41;;;-140.19;79.26
6869;BME280;3473;42.604;23.496;2022-09-11T01:24:52;21994.75;;;-140.19;79.03
6869;BME280;3473;42.604;23.496;2022-09-11T01:26:54;21670.41;;;-140.19;79.40
6869;BME280;3473;42.604;23.496;2022-09-11T01:28:58;21736.44;;;-140.19;80.06
6869;BME280;3473;42.604;23.496;2022-09-11T01:30:55;21761.69;;;-140.19;79.99
6869;BME280;3473;42.604;23.496;2022-09-11T01:33:11;21804.41;;;-140.19;80.52
6869;BME280;3473;42.604;23.496;2022-09-11T01:35:10;21854.91;;;-140.19;80.96
6869;BME280;3473;42.604;23.496;2022-09-11T01:37:06;21742.28;;;-140.19;81.13
6869;BME280;3473;42.604;23.496;2022-09-11T01:39:00;21684.03;;;-140.19;81.15
6869;BME280;3473;42.604;23.496;2022-09-11T01:40:54;21699.56;;;-140.19;81.52
6869;BME280;3473;42.604;23.496;2022-09-11T01:42:50;21750.03;;;-140.19;81.50
6869;BME280;3473;42.604;23.496;2022-09-11T01:44:47;21732.56;;;-140.19;81.83
6869;BME280;3473;42.604;23.496;2022-09-11T01:46:44;21536.44;;;-140.19;82.13
6869;BME280;3473;42.604;23.496;2022-09-11T01:48:41;21513.13;;;-140.19;82.29
6869;BME280;3473;42.604;23.496;2022-09-11T01:50:36;21614.09;;;-140.19;82.43
6869;BME280;3473;42.604;23.496;2022-09-11T01:52:35;21503.41;;;-140.19;82.33
6869;BME280;3473;42.604;23.496;2022-09-11T01:54:34;21458.75;;;-140.19;82.28
6869;BME280;3473;42.604;23.496;2022-09-11T01:56:30;21538.38;;;-140.19;82.26
6869;BME280;3473;42.604;23.496;2022-09-11T01:58:26;21429.63;;;-140.19;82.14
6869;BME280;3473;42.604;23.496;2022-09-11T02:00:21;21573.31;;;-140.19;82.52
6869;BME280;3473;42.604;23.496;2022-09-11T02:02:17;21505.34;;;-140.19;82.39
6869;BME280;3473;42.604;23.496;2022-09-11T02:04:14;21524.78;;;-140.19;82.29
6869;BME280;3473;42.604;23.496;2022-09-11T02:06:12;21571.38;;;-140.19;82.26
6869;BME280;3473;42.604;23.496;2022-09-11T02:08:07;21466.53;;;-140.19;82.42
6869;BME280;3473;42.604;23.496;2022-09-11T02:10:06;21322.84;;;-140.19;82.23
6869;BME280;3473;42.604;23.496;2022-09-11T02:12:02;21410.22;;;-140.19;82.42
6869;BME280;3473;42.604;23.496;2022-09-11T02:14:02;21410.22;;;-140.19;82.44
6869;BME280;3473;42.604;23.496;2022-09-11T02:16:02;21245.16;;;-140.19;82.33
6869;BME280;3473;42.604;23.496;2022-09-11T02:18:00;21443.22;;;-140.19;82.27
6869;BME280;3473;42.604;23.496;2022-09-11T02:19:55;21295.66;;;-140.19;82.14
6869;BME280;3473;42.604;23.496;2022-09-11T02:21:48;21311.19;;;-140.19;81.97
6869;BME280;3473;42.604;23.496;2022-09-11T02:23:41;21346.13;;;-140.19;81.79
6869;BME280;3473;42.604;23.496;2022-09-11T02:25:33;21351.97;;;-140.19;81.71
6869;BME280;3473;42.604;23.496;2022-09-11T02:27:26;21361.66;;;-140.19;81.64
6869;BME280;3473;42.604;23.496;2022-09-11T02:29:21;21264.56;;;-140.19;81.53
6869;BME280;3473;42.604;23.496;2022-09-11T02:31:15;21328.66;;;-140.19;81.23
6869;BME280;3473;42.604;23.496;2022-09-11T02:33:25;21386.91;;;-140.19;81.20
6869;BME280;3473;42.604;23.496;2022-09-11T02:35:17;21289.81;;;-140.19;81.06
6869;BME280;3473;42.604;23.496;2022-09-11T02:37:27;21445.16;;;-140.19;81.28
6869;BME280;3473;42.604;23.496;2022-09-11T02:42:04;21485.94;;;-140.19;81.41
6869;BME280;3473;42.604;23.496;2022-09-11T02:44:07;21520.91;;;-140.19;81.21
6869;BME280;3473;42.604;23.496;2022-09-11T02:46:18;21769.47;;;-140.19;81.23
6869;BME280;3473;42.604;23.496;2022-09-11T02:48:27;21361.66;;;-140.19;81.06
6869;BME280;3473;42.604;23.496;2022-09-11T02:50:31;21247.09;;;-140.19;81.39
6869;BME280;3473;42.604;23.496;2022-09-11T02:52:32;21425.75;;;-140.19;81.28
6869;BME280;3473;42.604;23.496;2022-09-11T02:54:36;21346.13;;;-140.19;81.30
6869;BME280;3473;42.604;23.496;2022-09-11T02:56:38;21402.44;;;-140.19;81.24
6869;BME280;3473;42.604;23.496;2022-09-11T02:58:34;21674.31;;;-140.19;81.20
6869;BME280;3473;42.604;23.496;2022-09-11T03:00:27;21239.34;;;-140.19;81.14
6869;BME280;3473;42.604;23.496;2022-09-11T03:02:22;21439.34;;;-140.19;81.23
6869;BME280;3473;42.604;23.496;2022-09-11T03:04:15;21458.75;;;-140.19;81.35
6869;BME280;3473;42.604;23.496;2022-09-11T03:06:11;21577.22;;;-140.19;81.62
6869;BME280;3473;42.604;23.496;2022-09-11T03:08:04;21414.09;;;-140.19;81.83
6869;BME280;3473;42.604;23.496;2022-09-11T03:09:56;21534.50;;;-140.19;81.77
6869;BME280;3473;42.604;23.496;2022-09-11T03:11:48;21250.97;;;-140.19;81.64
6869;BME280;3473;42.604;23.496;2022-09-11T03:13:40;21631.59;;;-140.19;81.93
6869;BME280;3473;42.604;23.496;2022-09-11T03:15:33;21342.25;;;-140.19;82.03
6869;BME280;3473;42.604;23.496;2022-09-11T03:17:27;21447.09;;;-140.19;82.08
6869;BME280;3473;42.604;23.496;2022-09-11T03:19:19;21439.34;;;-140.19;82.05
6869;BME280;3473;42.604;23.496;2022-09-11T03:21:11;21427.69;;;-140.19;82.31
6869;BME280;3473;42.604;23.496;2022-09-11T03:23:03;21402.44;;;-140.19;82.01
6869;BME280;3473;42.604;23.496;2022-09-11T03:25:00;21289.81;;;-140.19;82.14
6869;BME280;3473;42.604;23.496;2022-09-11T03:26:52;21295.66;;;-140.19;81.99
6869;BME280;3473;42.604;23.496;2022-09-11T03:28:44;21505.34;;;-140.19;81.76
6869;BME280;3473;42.604;23.496;2022-09-11T03:30:36;21105.34;;;-140.19;81.79
6869;BME280;3473;42.604;23.496;2022-09-11T03:32:29;21555.84;;;-140.19;81.96
6869;BME280;3473;42.604;23.496;2022-09-11T03:34:21;21557.78;;;-140.19;82.11
6869;BME280;3473;42.604;23.496;2022-09-11T03:36:13;21482.06;;;-140.19;82.06
6869;BME280;3473;42.604;23.496;2022-09-11T03:38:05;21427.69;;;-140.19;82.31
6869;BME280;3473;42.604;23.496;2022-09-11T03:39:57;21478.19;;;-140.19;82.74
6869;BME280;3473;42.604;23.496;2022-09-11T03:41:50;21194.69;;;-140.19;82.79
6869;BME280;3473;42.604;23.496;2022-09-11T03:43:42;21468.47;;;-140.19;82.55
6869;BME280;3473;42.604;23.496;2022-09-11T03:45:34;21482.06;;;-140.19;83.17
6869;BME280;3473;42.604;23.496;2022-09-11T03:47:26;21373.31;;;-140.19;83.10
6869;BME280;3473;42.604;23.496;2022-09-11T03:49:20;21313.13;;;-140.19;83.31
6869;BME280;3473;42.604;23.496;2022-09-11T03:51:12;21338.38;;;-140.19;83.17
6869;BME280;3473;42.604;23.496;2022-09-11T03:53:05;21231.56;;;-140.19;83.30
6869;BME280;3473;42.604;23.496;2022-09-11T03:54:57;21266.53;;;-140.19;83.20
6869;BME280;3473;42.604;23.496;2022-09-11T03:56:49;21144.19;;;-140.19;83.68
6869;BME280;3473;42.604;23.496;2022-09-11T03:58:41;21243.22;;;-140.19;84.01
6869;BME280;3473;42.604;23.496;2022-09-11T04:00:34;21355.84;;;-140.19;83.80
6869;BME280;3473;42.604;23.496;2022-09-11T04:02:27;21289.81;;;-140.19;83.85
6869;BME280;3473;42.604;23.496;2022-09-11T04:04:20;21340.31;;;-140.19;84.34
6869;BME280;3473;42.604;23.496;2022-09-11T04:06:12;21169.44;;;-140.19;84.86
6869;BME280;3473;42.604;23.496;2022-09-11T04:08:04;21045.16;;;-140.19;85.29
6869;BME280;3473;42.604;23.496;2022-09-11T04:09:57;21027.69;;;-140.19;85.44
6869;BME280;3473;42.604;23.496;2022-09-11T04:11:49;20761.72;;;-140.19;85.47
6869;BME280;3473;42.604;23.496;2022-09-11T04:13:41;20903.44;;;-140.19;85.67
6869;BME280;3473;42.604;23.496;2022-09-11T04:15:35;20821.91;;;-140.19;85.94
6869;BME280;3473;42.604;23.496;2022-09-11T04:17:28;20788.88;;;-140.19;86.30
6869;BME280;3473;42.604;23.496;2022-09-11T04:19:21;20658.81;;;-140.19;86.45
6869;BME280;3473;42.604;23.496;2022-09-11T04:21:15;20744.25;;;-140.19;86.13
6869;BME280;3473;42.604;23.496;2022-09-11T04:23:07;20629.69;;;-140.19;86.32
6869;BME280;3473;42.604;23.496;2022-09-11T04:24:59;20387.03;;;-140.19;86.40
6869;BME280;3473;42.604;23.496;2022-09-11T04:26:51;20606.41;;;-140.19;86.62
6869;BME280;3473;42.604;23.496;2022-09-11T04:28:44;20581.16;;;-140.19;86.80
6869;BME280;3473;42.604;23.496;2022-09-11T04:30:36;20577.28;;;-140.19;86.56
6869;BME280;3473;42.604;23.496;2022-09-11T04:32:28;20235.63;;;-140.19;86.55
6869;BME280;3473;42.604;23.496;2022-09-11T04:34:21;20385.09;;;-140.19;86.69
6869;BME280;3473;42.604;23.496;2022-09-11T04:36:15;20633.56;;;-140.19;87.28
6869;BME280;3473;42.604;23.496;2022-09-11T04:38:08;20532.63;;;-140.19;87.07
6869;BME280;3473;42.604;23.496;2022-09-11T04:40:00;20480.22;;;-140.19;87.20
6869;BME280;3473;42.604;23.496;2022-09-11T04:41:52;20654.94;;;-140.19;87.16
6869;BME280;3473;42.604;23.496;2022-09-11T04:43:46;20301.63;;;-140.19;87.11
6869;BME280;3473;42.604;23.496;2022-09-11T04:45:37;20453.03;;;-140.19;86.88
6869;BME280;3473;42.604;23.496;2022-09-11T04:47:30;20519.03;;;-140.19;86.54
6869;BME280;3473;42.604;23.496;2022-09-11T04:49:23;20536.50;;;-140.19;86.10
6869;BME280;3473;42.604;23.496;2022-09-11T04:51:18;20553.97;;;-140.19;85.67
6869;BME280;3473;42.604;23.496;2022-09-11T04:53:11;20680.16;;;-140.19;85.39
6869;BME280;3473;42.604;23.496;2022-09-11T04:55:04;20637.47;;;-140.19;84.77
6869;BME280;3473;42.604;23.496;2022-09-11T04:56:56;20775.31;;;-140.19;84.06
6869;BME280;3473;42.604;23.496;2022-09-11T04:58:51;20788.88;;;-140.19;84.21
6869;BME280;3473;42.604;23.496;2022-09-11T05:00:44;20697.66;;;-140.19;84.08
6869;BME280;3473;42.604;23.496;2022-09-11T05:02:37;20651.06;;;-140.19;84.08
6869;BME280;3473;42.604;23.496;2022-09-11T05:04:31;20684.06;;;-140.19;83.88
6869;BME280;3473;42.604;23.496;2022-09-11T05:06:23;20821.91;;;-140.19;83.35
6869;BME280;3473;42.604;23.496;2022-09-11T05:08:15;20654.94;;;-140.19;82.76
6869;BME280;3473;42.604;23.496;2022-09-11T05:10:08;20804.41;;;-140.19;82.24
6869;BME280;3473;42.604;23.496;2022-09-11T05:12:01;20711.22;;;-140.19;81.35
6869;BME280;3473;42.604;23.496;2022-09-11T05:13:53;20860.72;;;-140.19;80.40
6869;BME280;3473;42.604;23.496;2022-09-11T05:15:48;20792.78;;;-140.19;79.65
6869;BME280;3473;42.604;23.496;2022-09-11T05:17:40;20897.63;;;-140.19;79.38
6869;BME280;3473;42.604;23.496;2022-09-11T05:19:33;20837.44;;;-140.19;79.26
6869;BME280;3473;42.604;23.496;2022-09-11T05:21:26;20996.63;;;-140.19;78.95
6869;BME280;3473;42.604;23.496;2022-09-11T05:23:19;20977.22;;;-140.19;78.30
6869;BME280;3473;42.604;23.496;2022-09-11T05:25:11;20957.81;;;-140.19;77.31
6869;BME280;3473;42.604;23.496;2022-09-11T05:27:03;20814.13;;;-140.19;77.80
6869;BME280;3473;42.604;23.496;2022-09-11T05:28:57;20918.97;;;-140.19;77.33
6869;BME280;3473;42.604;23.496;2022-09-11T05:30:50;20934.50;;;-140.19;76.79
6869;BME280;3473;42.604;23.496;2022-09-11T05:32:42;20903.44;;;-140.19;76.16
6869;BME280;3473;42.604;23.496;2022-09-11T05:34:36;21101.47;;;-140.19;75.32
6869;BME280;3473;42.604;23.496;2022-09-11T05:36:28;20938.38;;;-140.19;76.05
6869;BME280;3473;42.604;23.496;2022-09-11T05:38:21;21060.69;;;-140.19;76.25
6869;BME280;3473;42.604;23.496;2022-09-11T05:40:14;21072.34;;;-140.19;75.82
6869;BME280;3473;42.604;23.496;2022-09-11T05:42:06;20874.31;;;-140.19;75.62
6869;BME280;3473;42.604;23.496;2022-09-11T05:43:58;20953.91;;;-140.19;74.46
6869;BME280;3473;42.604;23.496;2022-09-11T05:45:53;20975.28;;;-140.19;72.98
6869;BME280;3473;42.604;23.496;2022-09-11T05:47:45;20901.50;;;-140.19;73.64
6869;BME280;3473;42.604;23.496;2022-09-11T05:49:39;21132.53;;;-140.19;74.27
6869;BME280;3473;42.604;23.496;2022-09-11T05:51:31;21076.25;;;-140.19;75.37
6869;BME280;3473;42.604;23.496;2022-09-11T05:53:27;21060.69;;;-140.19;75.12
6869;BME280;3473;42.604;23.496;2022-09-11T05:55:21;21047.13;;;-140.19;73.96
6869;BME280;3473;42.604;23.496;2022-09-11T05:57:13;21107.31;;;-140.19;73.78
6869;BME280;3473;42.604;23.496;2022-09-11T05:59:10;20986.91;;;-140.19;73.16
6869;BME280;3473;42.604;23.496;2022-09-11T06:01:06;20983.03;;;-140.19;72.35
6869;BME280;3473;42.604;23.496;2022-09-11T06:02:58;20909.25;;;-140.19;71.18
6869;BME280;3473;42.604;23.496;2022-09-11T06:04:52;21016.03;;;-140.19;70.22
6869;BME280;3473;42.604;23.496;2022-09-11T06:06:46;21008.28;;;-140.19;70.49
6869;BME280;3473;42.604;23.496;2022-09-11T06:08:41;21058.75;;;-140.19;69.92
6869;BME280;3473;42.604;23.496;2022-09-11T06:10:33;21068.47;;;-140.19;68.83
6869;BME280;3473;42.604;23.496;2022-09-11T06:12:25;21177.19;;;-140.19;68.48
6869;BME280;3473;42.604;23.496;2022-09-11T06:14:17;21161.66;;;-140.19;68.38
6869;BME280;3473;42.604;23.496;2022-09-11T06:16:12;21186.91;;;-140.19;68.43
6869;BME280;3473;42.604;23.496;2022-09-11T06:18:05;21163.59;;;-140.19;66.91
6869;BME280;3473;42.604;23.496;2022-09-11T06:22:38;21377.19;;;-140.19;65.46
6869;BME280;3473;42.604;23.496;2022-09-11T06:24:30;21167.50;;;-140.19;65.83
6869;BME280;3473;42.604;23.496;2022-09-11T06:26:24;21150.03;;;-140.19;65.27
6869;BME280;3473;42.604;23.496;2022-09-11T06:28:16;21181.09;;;-140.19;64.94
6869;BME280;3473;42.604;23.496;2022-09-11T06:30:11;21239.34;;;-140.19;64.29
6869;BME280;3473;42.604;23.496;2022-09-11T06:32:04;21049.06;;;-140.19;63.91
6869;BME280;3473;42.604;23.496;2022-09-11T06:34:03;21134.47;;;-140.19;63.90
6869;BME280;3473;42.604;23.496;2022-09-11T06:35:56;21134.47;;;-140.19;64.97
6869;BME280;3473;42.604;23.496;2022-09-11T06:37:50;20932.56;;;-140.19;64.87
6869;BME280;3473;42.604;23.496;2022-09-11T06:39:42;21190.78;;;-140.19;64.70
6869;BME280;3473;42.604;23.496;2022-09-11T06:41:35;21313.13;;;-140.19;66.54
6869;BME280;3473;42.604;23.496;2022-09-11T06:43:27;21284.00;;;-140.19;65.40
6869;BME280;3473;42.604;23.496;2022-09-11T06:45:19;21474.28;;;-140.19;65.27
6869;BME280;3473;42.604;23.496;2022-09-11T06:47:11;21299.53;;;-140.19;65.02
6869;BME280;3473;42.604;23.496;2022-09-11T06:49:04;21235.44;;;-140.19;65.03
6869;BME280;3473;42.604;23.496;2022-09-11T06:50:56;21311.19;;;-140.19;64.08
6869;BME280;3473;42.604;23.496;2022-09-11T06:52:53;21243.22;;;-140.19;63.20
6869;BME280;3473;42.604;23.496;2022-09-11T06:54:45;21289.81;;;-140.19;62.76
6869;BME280;3473;42.604;23.496;2022-09-11T06:56:39;21359.72;;;-140.19;62.29
6869;BME280;3473;42.604;23.496;2022-09-11T06:58:32;21175.25;;;-140.19;62.63
6869;BME280;3473;42.604;23.496;2022-09-11T07:00:24;21293.69;;;-140.19;61.94
6869;BME280;3473;42.604;23.496;2022-09-11T07:02:16;21373.31;;;-140.19;60.91
6869;BME280;3473;42.604;23.496;2022-09-11T07:04:08;21318.94;;;-140.19;61.43
6869;BME280;3473;42.604;23.496;2022-09-11T07:06:00;21270.41;;;-140.19;61.15
6869;BME280;3473;42.604;23.496;2022-09-11T07:07:56;21375.25;;;-140.19;60.86
6869;BME280;3473;42.604;23.496;2022-09-11T07:09:48;21357.78;;;-140.19;60.34
6869;BME280;3473;42.604;23.496;2022-09-11T07:11:40;21400.50;;;-140.19;58.99
6869;BME280;3473;42.604;23.496;2022-09-11T07:13:35;20643.28;;;-140.19;60.65
6869;BME280;3473;42.604;23.496;2022-09-11T07:15:30;21365.56;;;-140.19;60.63
6869;BME280;3473;42.604;23.496;2022-09-11T07:17:22;21336.41;;;-140.19;59.95
6869;BME280;3473;42.604;23.496;2022-09-11T07:19:14;21350.00;;;-140.19;60.38
6869;BME280;3473;42.604;23.496;2022-09-11T07:21:09;21250.97;;;-140.19;59.03
6869;BME280;3473;42.604;23.496;2022-09-11T07:23:05;21293.69;;;-140.19;58.35
6869;BME280;3473;42.604;23.496;2022-09-11T07:24:57;21441.28;;;-140.19;57.52
6869;BME280;3473;42.604;23.496;2022-09-11T07:26:50;21565.56;;;-140.19;56.63
6869;BME280;3473;42.604;23.496;2022-09-11T07:28:43;21357.78;;;-140.19;56.33
6869;BME280;3473;42.604;23.496;2022-09-11T07:30:36;21406.31;;;-140.19;55.96
6869;BME280;3473;42.604;23.496;2022-09-11T07:32:30;21435.44;;;-140.19;56.10
6869;BME280;3473;42.604;23.496;2022-09-11T07:34:22;21305.34;;;-140.19;57.67
6869;BME280;3473;42.604;23.496;2022-09-11T07:36:16;21398.56;;;-140.19;58.83
6869;BME280;3473;42.604;23.496;2022-09-11T07:38:10;21250.97;;;-140.19;58.33
6869;BME280;3473;42.604;23.496;2022-09-11T07:40:03;21357.78;;;-140.19;58.25
6869;BME280;3473;42.604;23.496;2022-09-11T07:41:55;21355.84;;;-140.19;56.29
6869;BME280;3473;42.604;23.496;2022-09-11T07:43:51;21548.09;;;-140.19;56.37
6869;BME280;3473;42.604;23.496;2022-09-11T07:45:43;21375.25;;;-140.19;56.69
6869;BME280;3473;42.604;23.496;2022-09-11T07:47:35;21305.34;;;-140.19;56.63
6869;BME280;3473;42.604;23.496;2022-09-11T07:49:28;21386.91;;;-140.19;55.94
6869;BME280;3473;42.604;23.496;2022-09-11T07:51:20;21350.00;;;-140.19;54.77
6869;BME280;3473;42.604;23.496;2022-09-11T07:53:13;21447.09;;;-140.19;53.88
6869;BME280;3473;42.604;23.496;2022-09-11T07:55:08;21301.47;;;-140.19;52.83
6869;BME280;3473;42.604;23.496;2022-09-11T07:57:00;21402.44;;;-140.19;52.92
6869;BME280;3473;42.604;23.496;2022-09-11T07:58:53;21427.69;;;-140.19;51.03
6869;BME280;3473;42.604;23.496;2022-09-11T08:00:46;21396.63;;;-140.19;51.51
6869;BME280;3473;42.604;23.496;2022-09-11T08:02:38;21474.28;;;-140.19;50.42
6869;BME280;3473;42.604;23.496;2022-09-11T08:04:32;21439.34;;;-140.19;50.18
6869;BME280;3473;42.604;23.496;2022-09-11T08:06:25;21501.47;;;-140.19;49.62
6869;BME280;3473;42.604;23.496;2022-09-11T08:08:20;21402.44;;;-140.19;48.46
6869;BME280;3473;42.604;23.496;2022-09-11T08:10:13;21515.06;;;-140.19;46.34
6869;BME280;3473;42.604;23.496;2022-09-11T08:12:05;22348.25;;;-140.19;46.96
6869;BME280;3473;42.604;23.496;2022-09-11T08:14:00;21515.06;;;-140.19;46.78
6869;BME280;3473;42.604;23.496;2022-09-11T08:15:52;21447.09;;;-140.19;47.34
6869;BME280;3473;42.604;23.496;2022-09-11T08:17:44;21462.63;;;-140.19;47.18
6869;BME280;3473;42.604;23.496;2022-09-11T08:19:36;21790.81;;;-140.19;45.84
6869;BME280;3473;42.604;23.496;2022-09-11T08:21:28;21544.19;;;-140.19;46.54
6869;BME280;3473;42.604;23.496;2022-09-11T08:23:22;21534.50;;;-140.19;45.71
6869;BME280;3473;42.604;23.496;2022-09-11T08:25:14;21581.09;;;-140.19;44.30
6869;BME280;3473;42.604;23.496;2022-09-11T08:27:06;21542.25;;;-140.19;43.73
6869;BME280;3473;42.604;23.496;2022-09-11T08:28:58;21538.38;;;-140.19;44.36
6869;BME280;3473;42.604;23.496;2022-09-11T08:30:55;21520.91;;;-140.19;42.29
6869;BME280;3473;42.604;23.496;2022-09-11T08:32:48;21596.63;;;-140.19;42.94
6869;BME280;3473;42.604;23.496;2022-09-11T08:34:39;21524.78;;;-140.19;42.43
6869;BME280;3473;42.604;23.496;2022-09-11T08:36:32;21520.91;;;-140.19;41.13
6869;BME280;3473;42.604;23.496;2022-09-11T08:38:26;21522.84;;;-140.19;40.94
6869;BME280;3473;42.604;23.496;2022-09-11T08:40:18;21505.34;;;-140.19;41.17
6869;BME280;3473;42.604;23.496;2022-09-11T08:42:13;21478.19;;;-140.19;40.71
6869;BME280;3473;42.604;23.496;2022-09-11T08:44:13;21656.84;;;-140.19;41.54
6869;BME280;3473;42.604;23.496;2022-09-11T08:46:07;21627.69;;;-140.19;40.69
6869;BME280;3473;42.604;23.496;2022-09-11T08:48:00;21538.38;;;-140.19;41.31
6869;BME280;3473;42.604;23.496;2022-09-11T08:49:57;21647.13;;;-140.19;39.98
6869;BME280;3473;42.604;23.496;2022-09-11T08:51:54;21608.28;;;-140.19;40.76
6869;BME280;3473;42.604;23.496;2022-09-11T08:53:48;21571.38;;;-140.19;39.20
6869;BME280;3473;42.604;23.496;2022-09-11T08:55:47;21746.16;;;-140.19;38.73
6869;BME280;3473;42.604;23.496;2022-09-11T08:57:45;21629.66;;;-140.19;39.85
6869;BME280;3473;42.604;23.496;2022-09-11T08:59:53;21412.16;;;-140.19;38.85
6869;BME280;3473;42.604;23.496;2022-09-11T09:01:53;21610.22;;;-140.19;38.29
6869;BME280;3473;42.604;23.496;2022-09-11T09:04:01;21505.34;;;-140.19;39.59
6869;BME280;3473;42.604;23.496;2022-09-11T09:06:08;21666.53;;;-140.19;40.74
6869;BME280;3473;42.604;23.496;2022-09-11T09:08:13;21699.56;;;-140.19;40.89
6869;BME280;3473;42.604;23.496;2022-09-11T09:10:21;21641.28;;;-140.19;40.62
6869;BME280;3473;42.604;23.496;2022-09-11T09:12:26;21575.28;;;-140.19;38.69
6869;BME280;3473;42.604;23.496;2022-09-11T09:15:02;21524.78;;;-140.19;39.04
6869;BME280;3473;42.604;23.496;2022-09-11T09:17:01;21532.53;;;-140.19;38.28
6869;BME280;3473;42.604;23.496;2022-09-11T09:18:59;21544.19;;;-140.19;38.46
6869;BME280;3473;42.604;23.496;2022-09-11T09:20:59;21567.50;;;-140.19;38.94
6869;BME280;3473;42.604;23.496;2022-09-11T09:22:53;21538.38;;;-140.19;38.56
6869;BME280;3473;42.604;23.496;2022-09-11T09:25:28;21536.44;;;-140.19;38.72
6869;BME280;3473;42.604;23.496;2022-09-11T09:27:30;21600.50;;;-140.19;39.39
6869;BME280;3473;42.604;23.496;2022-09-11T09:29:35;21557.78;;;-140.19;39.88
6869;BME280;3473;42.604;23.496;2022-09-11T09:31:30;21682.06;;;-140.19;39.57
6869;BME280;3473;42.604;23.496;2022-09-11T09:33:29;21573.31;;;-140.19;39.58
6869;BME280;3473;42.604;23.496;2022-09-11T09:35:24;21750.03;;;-140.19;40.33
6869;BME280;3473;42.604;23.496;2022-09-11T09:37:20;21621.88;;;-140.19;40.22
6869;BME280;3473;42.604;23.496;2022-09-11T09:39:13;21550.03;;;-140.19;40.19
6869;BME280;3473;42.604;23.496;2022-09-11T09:41:32;21600.50;;;-140.19;41.47
6869;BME280;3473;42.604;23.496;2022-09-11T09:43:37;21687.91;;;-140.19;41.94
6869;BME280;3473;42.604;23.496;2022-09-11T09:45:43;21586.91;;;-140.19;42.70
6869;BME280;3473;42.604;23.496;2022-09-11T09:47:41;21668.47;;;-140.19;42.69
6869;BME280;3473;42.604;23.496;2022-09-11T09:49:34;21722.84;;;-140.19;41.67
6869;BME280;3473;42.604;23.496;2022-09-11T09:51:27;21750.03;;;-140.19;40.97
6869;BME280;3473;42.604;23.496;2022-09-11T09:53:27;21707.31;;;-140.19;39.03
6869;BME280;3473;42.604;23.496;2022-09-11T09:55:20;21497.59;;;-140.19;39.64
6869;BME280;3473;42.604;23.496;2022-09-11T09:57:14;21594.69;;;-140.19;38.54
6869;BME280;3473;42.604;23.496;2022-09-11T09:59:13;21369.44;;;-140.19;38.69
6869;BME280;3473;42.604;23.496;2022-09-11T10:01:40;21501.47;;;-140.19;38.70
6869;BME280;3473;42.604;23.496;2022-09-11T10:03:34;21497.59;;;-140.19;39.29
6869;BME280;3473;42.604;23.496;2022-09-11T10:05:28;21573.31;;;-140.19;40.06
6869;BME280;3473;42.604;23.496;2022-09-11T10:07:21;21573.31;;;-140.19;39.09
6869;BME280;3473;42.604;23.496;2022-09-11T10:09:19;21621.88;;;-140.19;37.93